Terminal Aerodrome Forecast
Issued by NWS Norman, OK

Home | Current Version | Previous Version | Text Only | Print | Product List | Glossary On
Versions: 1 2 3 4 5 6 7 8 9 10 11 12 13 14
000
FTUS44 KOUN 231557 AAA
TAFSPS
TAF AMD
KSPS 231557Z 2316/2412 35014G21KT P6SM VCSH FEW022 BKN250
      TEMPO 2316/2318 6SM -SHRA
     FM232000 33012KT P6SM SCT040
     FM240100 28006KT P6SM SCT100=

USA.gov is the U.S. government's official web portal to all federal, state and local government web resources and services.